Victor — LZG2364 — position and weather

sailwx.info

Track history (hours):
 
Tides and Currents Weather Stations Pressure Air Temp Water Temp Dewpoint Dewpoint Depression Visibility Wind Speed Wind Dir Waves Ship Positions

Victor

Last reported at 2018-Feb-10 11:27 UTC. Time now 2018-Feb-21 11:31 UTC.
Position N 44°18' E 028°03'.
Warning: this ship's position is 11 days out of date.

Length 162 m; draft 0.2 m.

MMSI: 207072364.

Date/timePositionNaut miles runAvg speedWind from/ knotsBaromVisibWave heightAir tempDewpointWater temp
2018-Feb-10 11:27N 44°18' E 028°03'2 4.1
2018-Feb-10 10:59N 44°17' E 028°05'3 6.7
2018-Feb-10 10:30N 44°16' E 028°09'3 6.8
2018-Feb-10 10:00N 44°15' E 028°14'3 6.8
2018-Feb-10 09:30N 44°15' E 028°18'3 6.3
2018-Feb-10 08:59N 44°14' E 028°22'3 6.7
2018-Feb-10 08:30N 44°10' E 028°24'4 6.6
2018-Feb-10 07:54N 44°07' E 028°27'3 6.4
2018-Feb-10 07:29N 44°06' E 028°30'3 7.0
2018-Feb-10 07:00N 44°06' E 028°35'2 3.6
2018-Feb-10 06:30N 44°06' E 028°37'0 1.0
2018-Feb-10 06:00N 44°06' E 028°38'1 1.9
2018-Feb-10 05:30N 44°06' E 028°39'0 0.1
2018-Feb-10 05:00N 44°06' E 028°39'0 0.0
2018-Feb-10 04:30N 44°06' E 028°39'0 0.0
2018-Feb-10 04:00N 44°06' E 028°39'0 0.0
2018-Feb-10 03:30N 44°06' E 028°39'0 0.0
2018-Feb-10 03:00N 44°06' E 028°39'0 0.0
2018-Feb-10 02:30N 44°06' E 028°39'0 0.0
2018-Feb-10 02:00N 44°06' E 028°39'0 0.0
2018-Feb-10 01:30N 44°06' E 028°39'0 0.0
2018-Feb-10 01:00N 44°06' E 028°39'0 0.0
2018-Feb-10 00:30N 44°06' E 028°39'0 0.0
2018-Feb-10 00:00N 44°06' E 028°39'0 0.0
2018-Feb-09 23:30N 44°06' E 028°39'0 0.0
2018-Feb-09 23:00N 44°06' E 028°39'0 0.0
2018-Feb-09 22:46N 44°06' E 028°39'0 0.0
2018-Feb-09 22:00N 44°06' E 028°39'0 0.0
2018-Feb-09 21:30N 44°06' E 028°39'0 0.0
2018-Feb-09 20:30N 44°06' E 028°39'0 0.0
2018-Feb-09 20:00N 44°06' E 028°39'0 0.0
2018-Feb-09 19:30N 44°06' E 028°39'0 0.0
2018-Feb-09 18:30N 44°06' E 028°39'0 0.0
2018-Feb-09 17:30N 44°06' E 028°39'0 0.0
2018-Feb-09 16:30N 44°06' E 028°39'0 0.0
2018-Feb-09 16:00N 44°06' E 028°39'0 0.0
2018-Feb-09 15:30N 44°06' E 028°39'0 0.0
2018-Feb-09 15:00N 44°06' E 028°39'0 0.0
2018-Feb-09 14:30N 44°06' E 028°39'0 0.0
2018-Feb-09 14:00N 44°06' E 028°39'0 0.0
2018-Feb-09 13:30N 44°06' E 028°39'0 0.0
2018-Feb-09 13:00N 44°06' E 028°39'1 1.5
2018-Feb-09 12:30N 44°06' E 028°38'1 1.7
2018-Feb-09 12:00N 44°06' E 028°37'12 4.9
2018-Feb-09 09:30N 44°13' E 028°23'  
Track history (hours):
 
Tides and Currents Weather Stations Pressure Air Temp Water Temp Dewpoint Dewpoint Depression Visibility Wind Speed Wind Dir Waves Ship Positions

Victor

Last reported at 2018-Feb-10 11:27 UTC. Time now 2018-Feb-21 11:31 UTC.
Position N 44°18' E 028°03'.
Warning: this ship's position is 11 days out of date.

Length 162 m; draft 0.2 m.

MMSI: 207072364.

Date/timePositionNaut miles runAvg speedWind from/ knotsBaromVisibWave heightAir tempDewpointWater temp
2018-Feb-10 11:27N 44°18' E 028°03'2 4.1
2018-Feb-10 10:59N 44°17' E 028°05'3 6.7
2018-Feb-10 10:30N 44°16' E 028°09'3 6.8
2018-Feb-10 10:00N 44°15' E 028°14'3 6.8
2018-Feb-10 09:30N 44°15' E 028°18'3 6.3
2018-Feb-10 08:59N 44°14' E 028°22'3 6.7
2018-Feb-10 08:30N 44°10' E 028°24'4 6.6
2018-Feb-10 07:54N 44°07' E 028°27'3 6.4
2018-Feb-10 07:29N 44°06' E 028°30'3 7.0
2018-Feb-10 07:00N 44°06' E 028°35'2 3.6
2018-Feb-10 06:30N 44°06' E 028°37'0 1.0
2018-Feb-10 06:00N 44°06' E 028°38'1 1.9
2018-Feb-10 05:30N 44°06' E 028°39'0 0.1
2018-Feb-10 05:00N 44°06' E 028°39'0 0.0
2018-Feb-10 04:30N 44°06' E 028°39'0 0.0
2018-Feb-10 04:00N 44°06' E 028°39'0 0.0
2018-Feb-10 03:30N 44°06' E 028°39'0 0.0
2018-Feb-10 03:00N 44°06' E 028°39'0 0.0
2018-Feb-10 02:30N 44°06' E 028°39'0 0.0
2018-Feb-10 02:00N 44°06' E 028°39'0 0.0
2018-Feb-10 01:30N 44°06' E 028°39'0 0.0
2018-Feb-10 01:00N 44°06' E 028°39'0 0.0
2018-Feb-10 00:30N 44°06' E 028°39'0 0.0
2018-Feb-10 00:00N 44°06' E 028°39'0 0.0
2018-Feb-09 23:30N 44°06' E 028°39'0 0.0
2018-Feb-09 23:00N 44°06' E 028°39'0 0.0
2018-Feb-09 22:46N 44°06' E 028°39'0 0.0
2018-Feb-09 22:00N 44°06' E 028°39'0 0.0
2018-Feb-09 21:30N 44°06' E 028°39'0 0.0
2018-Feb-09 20:30N 44°06' E 028°39'0 0.0
2018-Feb-09 20:00N 44°06' E 028°39'0 0.0
2018-Feb-09 19:30N 44°06' E 028°39'0 0.0
2018-Feb-09 18:30N 44°06' E 028°39'0 0.0
2018-Feb-09 17:30N 44°06' E 028°39'0 0.0
2018-Feb-09 16:30N 44°06' E 028°39'0 0.0
2018-Feb-09 16:00N 44°06' E 028°39'0 0.0
2018-Feb-09 15:30N 44°06' E 028°39'0 0.0
2018-Feb-09 15:00N 44°06' E 028°39'0 0.0
2018-Feb-09 14:30N 44°06' E 028°39'0 0.0
2018-Feb-09 14:00N 44°06' E 028°39'0 0.0
2018-Feb-09 13:30N 44°06' E 028°39'0 0.0
2018-Feb-09 13:00N 44°06' E 028°39'1 1.5
2018-Feb-09 12:30N 44°06' E 028°38'1 1.7
2018-Feb-09 12:00N 44°06' E 028°37'12 4.9
2018-Feb-09 09:30N 44°13' E 028°23'  

Dump ship's entire track history